Amador Station, California
Current Conditions -  °F | °C
As of 10:55 PM on Thursday 30 Oct 2014 (Local Time) from KPVF Reporting Station
Broken Clouds Broken Clouds  
Wind Chill: 15°   Ceiling: 6000
Heat Index: 15°   Visibility: 10mi
Dew Point:   Wind: 3mph
Humidity: 42%   Direction: 150°SSE
Pressure: 29.94"   Gusts: NA
Location:  38.5644°N, 120.32°W
Report Text: KPVF 310555Z AUTO 15003KT 10SM FEW043 BKN060 15/02 A2994 RMK AO1
Loading
Personal Weather Stations






























Interactive Weather Map
Tropical Storm Tracking
New forecast layout! Learn more

10-Day Weather Forecast

Advertisements
Track Severe Weather on mobile